Meteo Giornale » Osservazioni meteo Italia » Trapani-Birgi
ore: 00:55 - Osservazioni Meteo Trapani-Birgi
Lat. 37° 55' N Lon. 12° 30' E Alt. 7 metri s.l.m.
26 °C
Poco Nuvoloso
Temp. 24 Ore
24 °C
31 °C
Nord
11.1 Km/h
Dew point 22 °C
Umidità 78 %
Visibilità 10 Km
Il sole sorge alle ore 06:39
Il sole tramonta alle ore 19:40
| Data e Ora | Cielo e Fenomeni | T °C | DP °C | Um. % | Pres. hPa | Vis. km | Vento km/h | |
|---|---|---|---|---|---|---|---|---|
| Oggi h: 00:55 | Poco Nuvoloso | 26 | 22 | 78 | 1017 | 10 | N 11.1 | |
| Ieri h: 23:55 | Poco Nuvoloso | 28 | 24 | 78 | 1018 | 10 | N/NO 13 | |
| Ieri h: 22:55 | Sereno | 25 | 21 | 78 | 1017 | 10 | N 3.7 | |
| Ieri h: 21:55 | Sereno | 25 | 20 | 73 | 1016 | 10 | N 5.5 | |
| Ieri h: 20:55 | Sereno | 27 | 21 | 69 | 1015 | 10 | N 5.5 | |
| Ieri h: 19:55 | Poco Nuvoloso | 28 | 22 | 69 | 1015 | 10 | N/NE 18.5 | |
| Ieri h: 18:55 | Sereno | 29 | 22 | 66 | 1015 | 10 | N 22.2 | |
| Ieri h: 17:55 | Sereno | 31 | 21 | 55 | 1016 | 10 | N 20.3 | |
| Ieri h: 16:55 | Sereno | 31 | 23 | 62 | 1016 | 10 | N 24 | |
| Ieri h: 15:55 | Sereno | 30 | 23 | 66 | 1016 | 10 | N 24 | |
| Ieri h: 14:55 | Sereno | 30 | 23 | 66 | 1016 | 10 | N/NO 24 | |
| Ieri h: 13:55 | Sereno | 31 | 24 | 66 | 1015 | 10 | N 22.2 | |
| Ieri h: 12:55 | Sereno | 30 | 23 | 66 | 1015 | 10 | N 18.5 | |
| Ieri h: 11:55 | Sereno | 30 | 24 | 70 | 1017 | 10 | N/NO 16.7 | |
| Ieri h: 10:55 | Nuvoloso | 30 | 24 | 70 | 1017 | 10 | NO 14.8 | |
| Ieri h: 09:55 | Nuvoloso | 30 | 24 | 70 | 1016 | 10 | O/NO 14.8 | |
| Ieri h: 08:55 | Nuvoloso | 29 | 24 | 74 | 1016 | 10 | O/NO 13 | |
| Ieri h: 07:55 | Poco Nuvoloso | 27 | 24 | 83 | 1016 | 10 | NO 9.3 | |
| Ieri h: 06:55 | Poco Nuvoloso | 24 | 22 | 88 | 1015 | 10 | N 3.7 | |
| Ieri h: 05:55 | Poco Nuvoloso | 24 | 22 | 88 | 1014 | 10 | N 1.8 | |
| Ieri h: 04:55 | Poco Nuvoloso | 25 | 23 | 88 | 1015 | 10 | N 0 | |
| Ieri h: 03:55 | Poco Nuvoloso | 26 | 23 | 83 | 1015 | 10 | N 5.5 | |
| Ieri h: 02:55 | Poco Nuvoloso | 26 | 24 | 88 | 1015 | 10 | E/NE 7.4 | |
| Ieri h: 01:55 | Poco Nuvoloso | 27 | 24 | 83 | 1017 | 10 | N 5.5 | |



